Time;durP1;ratioP1;P1;durP2;ratioP2;P2;SDS_P1;SDS_P2;PMS_P1;PMS_P2;Temp;Humidity;BMP_temperature;BMP_pressure;BME280_temperature;BME280_humidity;BME280_pressure;Samples;Min_cycle;Max_cycle;Signal;HPM_P1;HPM_P2
2021/08/19 00:01:16;;;;;;;;;;;20.40;65.20;;;;;;5064081;28;19961;-71
2021/08/19 00:03:42;;;;;;;;;;;20.40;65.20;;;;;;5064458;22;19927;-70
2021/08/19 00:06:07;;;;;;;;;;;20.40;65.20;;;;;;5021680;28;20342;-72
2021/08/19 00:08:33;;;;;;;;;;;20.40;65.10;;;;;;5036361;28;19975;-72
2021/08/19 00:10:58;;;;;;;;;;;20.40;65.10;;;;;;5022043;28;19929;-71
2021/08/19 00:13:24;;;;;;;;;;;20.40;65.10;;;;;;5015955;28;20056;-71
2021/08/19 00:15:50;;;;;;;;;;;20.40;65.10;;;;;;5021492;28;19941;-74
2021/08/19 00:18:15;;;;;;;;;;;20.40;65.20;;;;;;5009850;28;20707;-73
2021/08/19 00:20:41;;;;;;;;;;;20.40;65.30;;;;;;5009024;28;20004;-73
2021/08/19 00:23:06;;;;;;;;;;;20.40;65.10;;;;;;5009880;28;19937;-72
2021/08/19 00:25:32;;;;;;;;;;;20.40;65.20;;;;;;5011195;28;20468;-72
2021/08/19 00:27:58;;;;;;;;;;;20.50;65.90;;;;;;5010816;28;19972;-72
2021/08/19 00:30:23;;;;;;;;;;;20.40;65.10;;;;;;5012066;28;20366;-72
2021/08/19 00:32:49;;;;;;;;;;;20.40;65.20;;;;;;5016184;28;19921;-72
2021/08/19 00:35:14;;;;;;;;;;;20.40;65.20;;;;;;5005092;28;19917;-71
2021/08/19 00:37:40;;;;;;;;;;;20.40;65.20;;;;;;5006769;28;19914;-74
2021/08/19 00:40:06;;;;;;;;;;;20.40;65.10;;;;;;4990722;28;19963;-74
2021/08/19 00:42:31;;;;;;;;;;;20.40;65.10;;;;;;5007896;28;20004;-74
2021/08/19 00:44:57;;;;;;;;;;;20.40;65.10;;;;;;5007740;28;20441;-74
2021/08/19 00:47:24;;;;;;;;;;;20.40;65.30;;;;;;5015780;28;19917;-72
2021/08/19 00:49:49;;;;;;;;;;;20.40;65.30;;;;;;5017249;28;20407;-73
2021/08/19 00:52:15;;;;;;;;;;;20.40;65.20;;;;;;5002100;28;19976;-72
2021/08/19 00:54:41;;;;;;;;;;;20.40;65.20;;;;;;5012918;28;19917;-72
2021/08/19 00:57:06;;;;;;;;;;;20.40;65.30;;;;;;5011952;28;20077;-72
2021/08/19 00:59:38;;;;;;;;;;;20.40;65.40;;;;;;5019264;28;20545;-73
2021/08/19 01:02:04;;;;;;;;;;;20.40;65.40;;;;;;5015785;28;20007;-73
2021/08/19 01:04:29;;;;;;;;;;;20.40;65.30;;;;;;5010653;28;20396;-71
2021/08/19 01:06:55;;;;;;;;;;;20.40;65.30;;;;;;5004449;28;19975;-72
2021/08/19 01:09:20;;;;;;;;;;;20.40;65.30;;;;;;5017061;28;19917;-73
2021/08/19 01:11:46;;;;;;;;;;;20.40;65.20;;;;;;5003601;28;19956;-72
2021/08/19 01:14:12;;;;;;;;;;;20.40;65.30;;;;;;5008858;28;20334;-71
2021/08/19 01:16:37;;;;;;;;;;;20.40;65.30;;;;;;4992211;28;19997;-72
2021/08/19 01:19:03;;;;;;;;;;;20.40;65.30;;;;;;5000550;28;20005;-74
2021/08/19 01:21:28;;;;;;;;;;;20.40;65.40;;;;;;5009944;28;19918;-71
2021/08/19 01:23:54;;;;;;;;;;;20.40;65.10;;;;;;5012387;28;19941;-71
2021/08/19 01:26:19;;;;;;;;;;;20.40;65.10;;;;;;5016087;28;19929;-73
2021/08/19 01:28:45;;;;;;;;;;;20.50;65.20;;;;;;5014243;28;20486;-70
2021/08/19 01:31:14;;;;;;;;;;;20.40;65.20;;;;;;5017140;28;19918;-72
2021/08/19 01:33:40;;;;;;;;;;;20.40;65.10;;;;;;5008524;28;20684;-74
2021/08/19 01:36:06;;;;;;;;;;;20.40;65.30;;;;;;4991574;28;19919;-73
2021/08/19 01:38:32;;;;;;;;;;;20.40;65.20;;;;;;5005846;28;19921;-71
2021/08/19 01:40:57;;;;;;;;;;;20.40;65.20;;;;;;5013469;28;19925;-72
2021/08/19 01:43:24;;;;;;;;;;;20.40;65.20;;;;;;5023245;28;19921;-73
2021/08/19 01:45:51;;;;;;;;;;;20.40;65.10;;;;;;5022568;28;19964;-72
2021/08/19 01:48:16;;;;;;;;;;;20.40;65.10;;;;;;5009228;28;19917;-72
2021/08/19 01:50:42;;;;;;;;;;;20.40;65.10;;;;;;5010817;28;20401;-72
2021/08/19 01:53:07;;;;;;;;;;;20.40;65.20;;;;;;5020981;28;20020;-73
2021/08/19 01:55:33;;;;;;;;;;;20.40;65.30;;;;;;5008139;28;19917;-72
2021/08/19 01:57:58;;;;;;;;;;;20.40;65.20;;;;;;5017076;28;19913;-72
2021/08/19 02:00:24;;;;;;;;;;;20.40;65.30;;;;;;5017074;28;20398;-71
2021/08/19 02:02:49;;;;;;;;;;;20.40;65.20;;;;;;5003551;28;19975;-74
2021/08/19 02:05:15;;;;;;;;;;;20.40;65.20;;;;;;5015903;28;19960;-74
2021/08/19 02:07:40;;;;;;;;;;;20.40;65.00;;;;;;5013335;28;19913;-72
2021/08/19 02:10:07;;;;;;;;;;;20.40;65.00;;;;;;5013656;28;19920;-75
2021/08/19 02:12:33;;;;;;;;;;;20.40;65.20;;;;;;4996503;28;19917;-73
2021/08/19 02:14:58;;;;;;;;;;;20.40;65.20;;;;;;5023190;28;19928;-73
2021/08/19 02:17:24;;;;;;;;;;;20.40;65.10;;;;;;5017195;28;19978;-72
2021/08/19 02:19:49;;;;;;;;;;;20.40;65.10;;;;;;5007142;28;19920;-73
2021/08/19 02:22:15;;;;;;;;;;;20.40;65.10;;;;;;5011087;28;20872;-73
2021/08/19 02:24:40;;;;;;;;;;;20.40;65.00;;;;;;5021470;28;19964;-71
2021/08/19 02:27:05;;;;;;;;;;;20.40;65.10;;;;;;5019374;28;19918;-72
2021/08/19 02:29:31;;;;;;;;;;;20.40;65.30;;;;;;5004706;28;19922;-71
2021/08/19 02:31:56;;;;;;;;;;;20.40;65.20;;;;;;5021296;28;19920;-71
2021/08/19 02:34:22;;;;;;;;;;;20.40;65.20;;;;;;5021291;28;19960;-72
2021/08/19 02:36:47;;;;;;;;;;;20.40;65.10;;;;;;5007103;28;20477;-71
2021/08/19 02:39:13;;;;;;;;;;;20.40;65.30;;;;;;5011036;28;19918;-71
2021/08/19 02:41:38;;;;;;;;;;;20.40;65.20;;;;;;5019262;28;19917;-72
2021/08/19 02:44:04;;;;;;;;;;;20.40;65.20;;;;;;5010833;28;19930;-72
2021/08/19 02:46:29;;;;;;;;;;;20.40;65.10;;;;;;5005193;28;20420;-73
2021/08/19 02:48:55;;;;;;;;;;;20.40;65.10;;;;;;5008260;28;20644;-72
2021/08/19 02:51:20;;;;;;;;;;;20.40;65.10;;;;;;5010715;28;19937;-72
2021/08/19 02:53:45;;;;;;;;;;;20.40;65.20;;;;;;5020529;28;19915;-73
2021/08/19 02:56:11;;;;;;;;;;;20.40;65.20;;;;;;5023507;28;20703;-74
2021/08/19 02:58:36;;;;;;;;;;;20.40;65.10;;;;;;5014603;28;19914;-72
2021/08/19 03:01:02;;;;;;;;;;;20.40;65.20;;;;;;5022924;28;19917;-74
2021/08/19 03:03:27;;;;;;;;;;;20.40;65.30;;;;;;5011993;28;19924;-72
2021/08/19 03:05:53;;;;;;;;;;;20.40;65.30;;;;;;5010928;28;20298;-73
2021/08/19 03:08:18;;;;;;;;;;;20.40;65.30;;;;;;5012161;28;19970;-72
2021/08/19 03:10:43;;;;;;;;;;;20.40;65.20;;;;;;5013627;28;19917;-73
2021/08/19 03:13:09;;;;;;;;;;;20.40;65.30;;;;;;5011636;28;19918;-72
2021/08/19 03:15:34;;;;;;;;;;;20.40;65.30;;;;;;5015238;28;19917;-73
2021/08/19 03:18:00;;;;;;;;;;;20.40;65.30;;;;;;5004077;28;20571;-73
2021/08/19 03:20:25;;;;;;;;;;;20.40;65.40;;;;;;5022487;28;19940;-71
2021/08/19 03:22:51;;;;;;;;;;;20.40;65.30;;;;;;4999684;28;19982;-73
2021/08/19 03:25:17;;;;;;;;;;;20.40;65.20;;;;;;5004494;28;19931;-72
2021/08/19 03:27:42;;;;;;;;;;;20.40;65.30;;;;;;5009780;28;20071;-73
2021/08/19 03:30:08;;;;;;;;;;;20.40;65.20;;;;;;5009971;28;20287;-72
2021/08/19 03:32:33;;;;;;;;;;;20.40;65.30;;;;;;5005219;28;20268;-72
2021/08/19 03:34:59;;;;;;;;;;;20.40;65.30;;;;;;5010123;28;19913;-72
2021/08/19 03:37:26;;;;;;;;;;;20.40;65.20;;;;;;5001692;28;19913;-71
2021/08/19 03:39:52;;;;;;;;;;;20.40;65.30;;;;;;5013045;28;19923;-71
2021/08/19 03:42:18;;;;;;;;;;;20.40;65.30;;;;;;5015212;28;20024;-74
2021/08/19 03:44:43;;;;;;;;;;;20.40;65.10;;;;;;5002193;28;19972;-72
2021/08/19 03:47:11;;;;;;;;;;;20.40;65.20;;;;;;5016298;23;20318;-62
2021/08/19 03:49:36;;;;;;;;;;;20.40;65.20;;;;;;5001775;28;19914;-62
2021/08/19 03:52:02;;;;;;;;;;;20.40;65.20;;;;;;5006906;28;19939;-62
2021/08/19 03:54:27;;;;;;;;;;;20.40;65.20;;;;;;5016954;28;19971;-63
2021/08/19 03:56:53;;;;;;;;;;;20.40;65.20;;;;;;5014647;28;19933;-63
2021/08/19 03:59:18;;;;;;;;;;;20.40;65.20;;;;;;5017577;28;20374;-61
2021/08/19 04:01:44;;;;;;;;;;;20.40;65.30;;;;;;5017677;28;19936;-62
2021/08/19 04:04:09;;;;;;;;;;;20.40;65.10;;;;;;5016918;28;19967;-62
2021/08/19 04:06:34;;;;;;;;;;;20.40;65.30;;;;;;5017470;28;19917;-62
2021/08/19 04:09:00;;;;;;;;;;;20.40;65.30;;;;;;5014811;28;20460;-62
2021/08/19 04:11:25;;;;;;;;;;;20.40;65.10;;;;;;5015676;28;19921;-62
2021/08/19 04:13:51;;;;;;;;;;;20.40;65.30;;;;;;5015629;28;19923;-60
2021/08/19 04:16:17;;;;;;;;;;;20.40;65.40;;;;;;5015879;28;20420;-62
2021/08/19 04:18:42;;;;;;;;;;;20.40;65.40;;;;;;5016891;28;19979;-63
2021/08/19 04:21:08;;;;;;;;;;;20.40;65.30;;;;;;5015580;28;20726;-61
2021/08/19 04:23:33;;;;;;;;;;;20.40;65.30;;;;;;5017125;28;19917;-62
2021/08/19 04:25:58;;;;;;;;;;;20.40;65.30;;;;;;5015571;28;20524;-59
2021/08/19 04:28:24;;;;;;;;;;;20.40;65.20;;;;;;5016589;28;20011;-63
2021/08/19 04:30:49;;;;;;;;;;;20.40;65.00;;;;;;5016280;28;19917;-63
2021/08/19 04:33:15;;;;;;;;;;;20.40;65.00;;;;;;5017369;28;20365;-63
2021/08/19 04:35:42;;;;;;;;;;;20.40;65.20;;;;;;5019288;28;20443;-63
2021/08/19 04:38:07;;;;;;;;;;;20.40;65.30;;;;;;5018633;28;19914;-61
2021/08/19 04:40:33;;;;;;;;;;;20.40;65.30;;;;;;5020133;28;20585;-62
2021/08/19 04:42:58;;;;;;;;;;;20.40;65.30;;;;;;5014173;28;20108;-60
2021/08/19 04:45:23;;;;;;;;;;;20.40;65.30;;;;;;5020409;28;20518;-62
2021/08/19 04:47:49;;;;;;;;;;;20.40;65.30;;;;;;5020202;28;19970;-62
2021/08/19 04:50:14;;;;;;;;;;;20.40;65.30;;;;;;5014397;28;19913;-64
2021/08/19 04:52:40;;;;;;;;;;;20.40;65.10;;;;;;5019958;28;19924;-63
2021/08/19 04:55:06;;;;;;;;;;;20.40;64.90;;;;;;5020282;28;19917;-64
2021/08/19 04:57:31;;;;;;;;;;;20.40;64.80;;;;;;5019483;28;20405;-63
2021/08/19 04:59:57;;;;;;;;;;;20.40;65.30;;;;;;5017653;28;19917;-63
2021/08/19 05:02:22;;;;;;;;;;;20.40;64.80;;;;;;5019298;28;20558;-63
2021/08/19 05:04:47;;;;;;;;;;;20.40;64.60;;;;;;5023609;28;19928;-59
2021/08/19 05:07:13;;;;;;;;;;;20.40;64.60;;;;;;5025599;28;19917;-62
2021/08/19 05:09:38;;;;;;;;;;;20.40;64.50;;;;;;5023976;28;19913;-62
2021/08/19 05:12:04;;;;;;;;;;;20.40;64.50;;;;;;5023806;28;20754;-62
2021/08/19 05:14:29;;;;;;;;;;;20.40;64.50;;;;;;5023731;28;20218;-62
2021/08/19 05:16:55;;;;;;;;;;;20.40;64.40;;;;;;5020827;28;20279;-62
2021/08/19 05:19:20;;;;;;;;;;;20.40;64.40;;;;;;5023154;28;20468;-61
2021/08/19 05:21:46;;;;;;;;;;;20.40;64.70;;;;;;5020945;28;19979;-63
2021/08/19 05:24:11;;;;;;;;;;;20.40;65.20;;;;;;5020076;28;19921;-61
2021/08/19 05:26:37;;;;;;;;;;;20.40;65.30;;;;;;5019998;28;20325;-63
2021/08/19 05:29:03;;;;;;;;;;;20.40;65.40;;;;;;5020242;28;20441;-62
2021/08/19 05:31:28;;;;;;;;;;;20.40;65.40;;;;;;5020746;28;20007;-61
2021/08/19 05:33:54;;;;;;;;;;;20.40;65.30;;;;;;5021376;28;20008;-62
2021/08/19 05:36:20;;;;;;;;;;;20.40;65.40;;;;;;5021110;28;19913;-62
2021/08/19 05:38:46;;;;;;;;;;;20.40;65.30;;;;;;5021547;28;19928;-62
2021/08/19 05:41:11;;;;;;;;;;;20.40;65.30;;;;;;5020667;28;19917;-62
2021/08/19 05:43:37;;;;;;;;;;;20.40;65.40;;;;;;5021076;28;20047;-63
2021/08/19 05:46:02;;;;;;;;;;;20.40;65.40;;;;;;5020181;28;19921;-62
2021/08/19 05:48:27;;;;;;;;;;;20.40;65.30;;;;;;5020934;28;19928;-62
2021/08/19 05:50:53;;;;;;;;;;;20.40;65.30;;;;;;5022098;28;20098;-62
2021/08/19 05:53:18;;;;;;;;;;;20.40;65.30;;;;;;5022121;28;19975;-62
2021/08/19 05:55:44;;;;;;;;;;;20.40;65.20;;;;;;5021976;28;19913;-62
2021/08/19 05:58:13;;;;;;;;;;;20.40;65.20;;;;;;5020822;28;19989;-62
2021/08/19 06:00:39;;;;;;;;;;;20.40;65.10;;;;;;5020341;28;19921;-63
2021/08/19 06:03:04;;;;;;;;;;;20.40;65.00;;;;;;5021123;28;19924;-62
2021/08/19 06:05:30;;;;;;;;;;;20.40;64.90;;;;;;5058553;22;19928;-63
2021/08/19 06:07:55;;;;;;;;;;;20.40;65.10;;;;;;5055250;28;20107;-60
2021/08/19 06:10:21;;;;;;;;;;;20.30;65.10;;;;;;5056045;28;19924;-60
2021/08/19 06:12:46;;;;;;;;;;;20.40;65.20;;;;;;5056196;28;19912;-61
2021/08/19 06:15:12;;;;;;;;;;;20.40;65.20;;;;;;5056246;28;19920;-61
2021/08/19 06:17:37;;;;;;;;;;;20.40;65.10;;;;;;5056581;28;19923;-59
2021/08/19 06:20:03;;;;;;;;;;;20.40;65.10;;;;;;5056896;28;20527;-60
2021/08/19 06:22:28;;;;;;;;;;;20.40;65.00;;;;;;5058129;28;19920;-61
2021/08/19 06:24:54;;;;;;;;;;;20.40;65.30;;;;;;5057871;28;20448;-60
2021/08/19 06:27:19;;;;;;;;;;;20.40;65.50;;;;;;5058631;28;19917;-60
2021/08/19 06:29:44;;;;;;;;;;;20.40;65.50;;;;;;5059437;28;19919;-60
2021/08/19 06:32:10;;;;;;;;;;;20.40;65.50;;;;;;5056804;28;19913;-59
2021/08/19 06:34:35;;;;;;;;;;;20.40;65.60;;;;;;5057338;28;20401;-59
2021/08/19 06:37:01;;;;;;;;;;;20.40;65.70;;;;;;5055164;28;19912;-61
2021/08/19 06:39:27;;;;;;;;;;;20.40;65.60;;;;;;5055289;28;19920;-60
2021/08/19 06:41:52;;;;;;;;;;;20.40;65.50;;;;;;5057821;28;19912;-61
2021/08/19 06:44:18;;;;;;;;;;;20.40;65.40;;;;;;5055832;28;19917;-60
2021/08/19 06:46:43;;;;;;;;;;;20.40;65.30;;;;;;5058460;28;19916;-59
2021/08/19 06:49:09;;;;;;;;;;;20.40;65.20;;;;;;5057277;28;20780;-60
2021/08/19 06:51:34;;;;;;;;;;;20.40;65.20;;;;;;5057216;28;19920;-60
2021/08/19 06:54:00;;;;;;;;;;;20.40;65.20;;;;;;5057531;28;19923;-61
2021/08/19 06:56:25;;;;;;;;;;;20.40;65.40;;;;;;5055681;28;19913;-59
2021/08/19 06:58:51;;;;;;;;;;;20.40;65.90;;;;;;5057819;28;20301;-60
2021/08/19 07:01:16;;;;;;;;;;;20.40;66.10;;;;;;5057911;28;19917;-59
2021/08/19 07:03:41;;;;;;;;;;;20.40;66.20;;;;;;5054420;28;20534;-60
2021/08/19 07:06:11;;;;;;;;;;;20.40;66.20;;;;;;5056238;28;19928;-59
2021/08/19 07:08:36;;;;;;;;;;;20.40;66.20;;;;;;5055950;28;19913;-60
2021/08/19 07:11:01;;;;;;;;;;;20.40;66.10;;;;;;5057553;28;20339;-61
2021/08/19 07:13:29;;;;;;;;;;;20.40;66.10;;;;;;5055581;28;21348;-59
2021/08/19 07:15:54;;;;;;;;;;;20.40;66.10;;;;;;5056746;28;19917;-60
2021/08/19 07:18:19;;;;;;;;;;;20.40;66.00;;;;;;5057185;28;20161;-60
2021/08/19 07:20:45;;;;;;;;;;;20.40;65.90;;;;;;5057614;28;19916;-60
2021/08/19 07:23:10;;;;;;;;;;;20.40;65.90;;;;;;5056358;28;19995;-59
2021/08/19 07:25:36;;;;;;;;;;;20.40;65.80;;;;;;5056608;28;20010;-60
2021/08/19 07:28:02;;;;;;;;;;;20.40;65.60;;;;;;5057037;28;20644;-60
2021/08/19 07:30:27;;;;;;;;;;;20.40;65.70;;;;;;5054889;28;19939;-59
2021/08/19 07:32:53;;;;;;;;;;;20.40;65.60;;;;;;5057885;28;20333;-61
2021/08/19 07:35:18;;;;;;;;;;;20.40;65.60;;;;;;5057504;28;19920;-61
2021/08/19 07:37:48;;;;;;;;;;;20.40;65.50;;;;;;5056181;28;19916;-60
2021/08/19 07:40:14;;;;;;;;;;;20.40;65.40;;;;;;5055582;28;19977;-59
2021/08/19 07:42:40;;;;;;;;;;;20.40;65.40;;;;;;5055154;28;19927;-59
2021/08/19 07:45:06;;;;;;;;;;;20.40;65.30;;;;;;5055847;28;20321;-61
2021/08/19 07:47:32;;;;;;;;;;;20.30;65.20;;;;;;5053680;28;19923;-59
2021/08/19 07:49:57;;;;;;;;;;;20.40;65.60;;;;;;5055926;28;19912;-60
2021/08/19 07:52:22;;;;;;;;;;;20.40;65.10;;;;;;5056517;28;19917;-60
2021/08/19 07:54:48;;;;;;;;;;;20.40;65.00;;;;;;5056574;28;19916;-60
2021/08/19 07:57:13;;;;;;;;;;;20.30;64.90;;;;;;5058117;28;19920;-61
2021/08/19 07:59:39;;;;;;;;;;;20.30;64.90;;;;;;5057614;28;19927;-59
2021/08/19 08:02:04;;;;;;;;;;;20.30;64.90;;;;;;5056870;28;20326;-61
2021/08/19 08:04:30;;;;;;;;;;;20.30;64.80;;;;;;5057159;28;19924;-60
2021/08/19 08:06:55;;;;;;;;;;;20.30;64.90;;;;;;5057941;28;19916;-61
2021/08/19 08:09:21;;;;;;;;;;;20.30;64.70;;;;;;5057735;28;19912;-60
2021/08/19 08:11:46;;;;;;;;;;;20.40;64.60;;;;;;5057768;28;19924;-59
2021/08/19 08:14:12;;;;;;;;;;;20.30;64.80;;;;;;5058355;28;19918;-60
2021/08/19 08:16:37;;;;;;;;;;;20.30;64.50;;;;;;5057608;28;19955;-60
2021/08/19 08:19:03;;;;;;;;;;;20.30;65.30;;;;;;5057226;28;20356;-60
2021/08/19 08:21:29;;;;;;;;;;;20.30;64.60;;;;;;5057642;28;20106;-60
2021/08/19 08:23:55;;;;;;;;;;;20.30;64.50;;;;;;5057133;28;19965;-60
2021/08/19 08:26:21;;;;;;;;;;;20.30;64.60;;;;;;5057731;28;20008;-60
2021/08/19 08:28:50;;;;;;;;;;;20.30;64.60;;;;;;5056641;28;20008;-59
2021/08/19 08:31:15;;;;;;;;;;;20.30;64.50;;;;;;5057382;28;19920;-59
2021/08/19 08:33:40;;;;;;;;;;;20.30;64.60;;;;;;5057461;28;20294;-61
2021/08/19 08:36:06;;;;;;;;;;;20.30;64.50;;;;;;5057107;28;19916;-61
2021/08/19 08:38:32;;;;;;;;;;;20.30;64.50;;;;;;5057075;28;19919;-60
2021/08/19 08:40:57;;;;;;;;;;;20.30;64.50;;;;;;5056685;28;19917;-61
2021/08/19 08:43:23;;;;;;;;;;;20.30;64.50;;;;;;5057299;28;19956;-60
2021/08/19 08:45:49;;;;;;;;;;;20.30;64.50;;;;;;5058179;28;19924;-59
2021/08/19 08:48:15;;;;;;;;;;;20.30;64.30;;;;;;5056246;28;19913;-58
2021/08/19 08:50:41;;;;;;;;;;;20.30;64.50;;;;;;5057628;28;20331;-60
2021/08/19 08:53:07;;;;;;;;;;;20.30;64.50;;;;;;5055849;28;19917;-60
2021/08/19 08:55:33;;;;;;;;;;;20.30;64.50;;;;;;5057845;28;19956;-60
2021/08/19 08:57:58;;;;;;;;;;;20.30;64.70;;;;;;5039189;28;19916;-60
2021/08/19 09:00:24;;;;;;;;;;;20.30;64.40;;;;;;5057133;28;19912;-59
2021/08/19 09:02:49;;;;;;;;;;;20.30;64.50;;;;;;5057236;28;20485;-61
2021/08/19 09:05:15;;;;;;;;;;;20.30;64.50;;;;;;5056718;28;19921;-61
2021/08/19 09:07:41;;;;;;;;;;;20.30;64.50;;;;;;5055569;28;19939;-61
2021/08/19 09:10:07;;;;;;;;;;;20.30;64.60;;;;;;5056860;28;20425;-61
2021/08/19 09:12:39;;;;;;;;;;;20.30;64.40;;;;;;5057411;28;19950;-60
2021/08/19 09:15:14;;;;;;;;;;;20.30;64.50;;;;;;5057255;28;20428;-61
2021/08/19 09:17:41;;;;;;;;;;;20.30;64.60;;;;;;5056894;28;19913;-59
2021/08/19 09:20:06;;;;;;;;;;;20.30;64.40;;;;;;5055366;28;19916;-60
2021/08/19 09:22:50;;;;;;;;;;;20.30;64.60;;;;;;5058134;28;19916;-60
2021/08/19 09:25:23;;;;;;;;;;;20.30;64.40;;;;;;5049992;28;20083;-61
2021/08/19 09:28:06;;;;;;;;;;;20.30;64.50;;;;;;5057291;28;20868;-61
2021/08/19 09:30:32;;;;;;;;;;;20.30;64.30;;;;;;5048249;28;20019;-60
2021/08/19 09:32:57;;;;;;;;;;;20.30;64.40;;;;;;5057433;28;19965;-60
2021/08/19 09:35:23;;;;;;;;;;;20.30;64.60;;;;;;5057235;28;19916;-59
2021/08/19 09:37:48;;;;;;;;;;;20.30;64.40;;;;;;5055533;28;20550;-61
2021/08/19 09:40:15;;;;;;;;;;;20.30;64.50;;;;;;5057574;28;19917;-61
2021/08/19 09:42:40;;;;;;;;;;;20.30;64.50;;;;;;5055830;28;19920;-61
2021/08/19 09:45:24;;;;;;;;;;;20.30;64.60;;;;;;5048422;28;19974;-60
2021/08/19 09:47:50;;;;;;;;;;;20.30;64.50;;;;;;5054844;28;19912;-59
2021/08/19 09:50:17;;;;;;;;;;;20.30;64.50;;;;;;5057301;28;19913;-59
2021/08/19 09:52:43;;;;;;;;;;;20.30;64.60;;;;;;5058346;28;19923;-60
2021/08/19 09:55:21;;;;;;;;;;;20.30;64.70;;;;;;5059486;28;19920;-59
2021/08/19 09:57:46;;;;;;;;;;;20.30;64.80;;;;;;5059712;28;19916;-59
2021/08/19 10:00:24;;;;;;;;;;;20.30;64.80;;;;;;5060312;28;19916;-59
2021/08/19 10:02:49;;;;;;;;;;;20.30;64.80;;;;;;5056537;28;19917;-60
2021/08/19 10:05:15;;;;;;;;;;;20.30;65.00;;;;;;5060052;28;20813;-60
2021/08/19 10:07:40;;;;;;;;;;;20.30;65.00;;;;;;5057330;28;19927;-60
2021/08/19 10:10:06;;;;;;;;;;;20.30;65.10;;;;;;5047570;28;19920;-60
2021/08/19 10:12:31;;;;;;;;;;;20.30;65.20;;;;;;5056191;28;19970;-60
2021/08/19 10:14:57;;;;;;;;;;;20.30;65.20;;;;;;5058266;28;19913;-60
2021/08/19 10:17:22;;;;;;;;;;;20.30;65.20;;;;;;5062404;28;19919;-60
2021/08/19 10:19:48;;;;;;;;;;;20.30;65.20;;;;;;5059643;28;19951;-60
2021/08/19 10:22:15;;;;;;;;;;;20.30;65.20;;;;;;5049031;28;19913;-63
2021/08/19 10:24:40;;;;;;;;;;;20.30;65.20;;;;;;5062234;28;20046;-62
2021/08/19 10:27:06;;;;;;;;;;;20.30;65.10;;;;;;5048449;28;20433;-60
2021/08/19 10:29:50;;;;;;;;;;;20.30;65.20;;;;;;5062474;28;20373;-60
2021/08/19 10:32:19;;;;;;;;;;;20.30;65.00;;;;;;5064149;28;19915;-61
2021/08/19 10:34:58;;;;;;;;;;;20.30;65.10;;;;;;5060281;28;20079;-61
2021/08/19 10:37:42;;;;;;;;;;;20.30;65.20;;;;;;5077216;28;19923;-61
2021/08/19 10:40:23;;;;;;;;;;;20.30;65.30;;;;;;5048823;28;19912;-61
2021/08/19 10:42:55;;;;;;;;;;;20.30;65.20;;;;;;5069195;28;20001;-59
2021/08/19 10:45:26;;;;;;;;;;;20.30;65.20;;;;;;5050134;28;20330;-60
2021/08/19 10:47:52;;;;;;;;;;;20.30;65.20;;;;;;5069840;28;19927;-61
2021/08/19 10:50:25;;;;;;;;;;;20.30;65.20;;;;;;5056430;28;19916;-59
2021/08/19 10:52:51;;;;;;;;;;;20.30;65.10;;;;;;5058590;28;20322;-61
2021/08/19 10:55:17;;;;;;;;;;;20.40;65.10;;;;;;5051052;28;19923;-61
2021/08/19 10:58:00;;;;;;;;;;;20.30;65.00;;;;;;5057217;28;19920;-61
2021/08/19 11:00:37;;;;;;;;;;;20.30;64.90;;;;;;5047002;28;20032;-59
2021/08/19 11:03:03;;;;;;;;;;;20.30;64.70;;;;;;5056517;28;19965;-61
2021/08/19 11:05:28;;;;;;;;;;;20.30;64.60;;;;;;5051632;28;20412;-61
2021/08/19 11:07:57;;;;;;;;;;;20.30;64.60;;;;;;5069530;28;19913;-61
2021/08/19 11:10:36;;;;;;;;;;;20.30;64.60;;;;;;5049273;28;20424;-61
2021/08/19 11:13:01;;;;;;;;;;;20.30;64.80;;;;;;5045433;28;19919;-58
2021/08/19 11:15:27;;;;;;;;;;;20.30;64.80;;;;;;5049521;28;20124;-61
2021/08/19 11:17:53;;;;;;;;;;;20.30;64.60;;;;;;5055153;28;20399;-61
2021/08/19 11:20:19;;;;;;;;;;;20.30;64.50;;;;;;5055974;28;20003;-60
2021/08/19 11:22:57;;;;;;;;;;;20.30;64.70;;;;;;5056386;28;19928;-61
2021/08/19 11:25:22;;;;;;;;;;;20.30;64.70;;;;;;5048977;28;20408;-61
2021/08/19 11:27:48;;;;;;;;;;;20.30;64.70;;;;;;5057255;28;19913;-60
2021/08/19 11:30:28;;;;;;;;;;;20.30;64.60;;;;;;5047608;28;20392;-60
2021/08/19 11:33:08;;;;;;;;;;;20.30;64.60;;;;;;5057100;28;19916;-60
2021/08/19 11:35:33;;;;;;;;;;;20.30;64.60;;;;;;5038849;28;19916;-60
2021/08/19 11:38:18;;;;;;;;;;;20.30;64.60;;;;;;5050102;28;20092;-61
2021/08/19 11:40:45;;;;;;;;;;;20.30;64.70;;;;;;5047509;28;19916;-61
2021/08/19 11:43:20;;;;;;;;;;;20.30;64.60;;;;;;5039048;28;20011;-61
2021/08/19 11:45:50;;;;;;;;;;;20.30;64.60;;;;;;5047407;28;20010;-60
2021/08/19 11:48:19;;;;;;;;;;;20.30;64.50;;;;;;5051020;28;20147;-61
2021/08/19 11:50:45;;;;;;;;;;;20.30;64.60;;;;;;5051114;28;19916;-59
2021/08/19 11:53:13;;;;;;;;;;;20.30;64.40;;;;;;5055932;28;19926;-60
2021/08/19 11:55:39;;;;;;;;;;;20.30;64.50;;;;;;5027843;28;20023;-60
2021/08/19 11:58:13;;;;;;;;;;;20.30;64.40;;;;;;5054266;28;20381;-61
2021/08/19 12:00:53;;;;;;;;;;;20.30;64.40;;;;;;5049875;28;19912;-60
2021/08/19 12:03:19;;;;;;;;;;;20.30;64.30;;;;;;5055870;28;20455;-61
2021/08/19 12:05:44;;;;;;;;;;;20.30;64.30;;;;;;5064390;22;19928;-66
2021/08/19 12:08:10;;;;;;;;;;;20.30;64.30;;;;;;5023116;28;20281;-66
2021/08/19 12:10:36;;;;;;;;;;;20.30;64.30;;;;;;5023541;28;19963;-66
2021/08/19 12:13:02;;;;;;;;;;;20.30;64.50;;;;;;5056072;28;19928;-69
2021/08/19 12:15:27;;;;;;;;;;;20.30;64.60;;;;;;5023297;28;19917;-66
2021/08/19 12:18:05;;;;;;;;;;;20.30;64.50;;;;;;5006996;28;19916;-66
2021/08/19 12:20:31;;;;;;;;;;;20.30;64.50;;;;;;5023103;28;19944;-66
2021/08/19 12:23:13;;;;;;;;;;;20.30;64.50;;;;;;5042248;28;19970;-68
2021/08/19 12:25:38;;;;;;;;;;;20.30;64.40;;;;;;5023681;28;20451;-66
2021/08/19 12:28:07;;;;;;;;;;;20.30;64.40;;;;;;5041060;28;19921;-66
2021/08/19 12:30:33;;;;;;;;;;;20.30;64.50;;;;;;5041157;28;19996;-66
2021/08/19 12:32:59;;;;;;;;;;;20.30;64.40;;;;;;5041010;28;20275;-67
2021/08/19 12:35:24;;;;;;;;;;;20.30;64.30;;;;;;5023075;28;19913;-66
2021/08/19 12:37:53;;;;;;;;;;;20.30;64.40;;;;;;5040576;28;19919;-65
2021/08/19 12:40:19;;;;;;;;;;;20.30;64.50;;;;;;5022330;28;19921;-67
2021/08/19 12:42:45;;;;;;;;;;;20.30;64.40;;;;;;5040166;28;19920;-67
2021/08/19 12:45:14;;;;;;;;;;;20.30;64.40;;;;;;5022192;28;19921;-67
2021/08/19 12:47:41;;;;;;;;;;;20.30;64.40;;;;;;5021703;28;19936;-67
2021/08/19 12:50:07;;;;;;;;;;;20.30;64.40;;;;;;5022260;28;19932;-68
2021/08/19 12:52:32;;;;;;;;;;;20.30;64.40;;;;;;5022277;28;19913;-65
2021/08/19 12:54:59;;;;;;;;;;;20.30;64.40;;;;;;5022437;28;19939;-66
2021/08/19 12:57:28;;;;;;;;;;;20.30;64.40;;;;;;5022001;28;19916;-67
2021/08/19 12:59:53;;;;;;;;;;;20.30;64.40;;;;;;5021238;28;19921;-67
2021/08/19 13:02:19;;;;;;;;;;;20.30;65.00;;;;;;5039667;28;19958;-66
2021/08/19 13:04:44;;;;;;;;;;;20.40;64.80;;;;;;5005561;28;20386;-69
2021/08/19 13:07:11;;;;;;;;;;;20.30;64.60;;;;;;5040319;28;19925;-65
2021/08/19 13:09:36;;;;;;;;;;;20.30;64.80;;;;;;5039381;28;19916;-65
2021/08/19 13:12:02;;;;;;;;;;;20.30;64.80;;;;;;5039683;28;19919;-66
2021/08/19 13:14:27;;;;;;;;;;;20.30;64.80;;;;;;5021459;28;19916;-65
2021/08/19 13:16:53;;;;;;;;;;;20.30;64.80;;;;;;5039507;28;19939;-67
2021/08/19 13:19:18;;;;;;;;;;;20.40;65.00;;;;;;5039228;28;19917;-66
2021/08/19 13:21:43;;;;;;;;;;;20.30;64.90;;;;;;5039892;28;19935;-67
2021/08/19 13:24:09;;;;;;;;;;;20.30;64.80;;;;;;5039362;28;19970;-66
2021/08/19 13:26:34;;;;;;;;;;;20.40;64.80;;;;;;5025661;28;19925;-66
2021/08/19 13:29:00;;;;;;;;;;;20.30;64.90;;;;;;5025363;28;19916;-65
2021/08/19 13:31:25;;;;;;;;;;;20.40;64.90;;;;;;5043300;28;20017;-67
2021/08/19 13:33:51;;;;;;;;;;;20.30;64.80;;;;;;5043673;28;19923;-67
2021/08/19 13:36:16;;;;;;;;;;;20.40;64.80;;;;;;5042919;28;19913;-67
2021/08/19 13:38:42;;;;;;;;;;;20.30;64.80;;;;;;5025868;28;19920;-68
2021/08/19 13:41:07;;;;;;;;;;;20.30;64.80;;;;;;5024957;28;20087;-65
2021/08/19 13:43:34;;;;;;;;;;;20.40;64.70;;;;;;5008420;28;19913;-65
2021/08/19 13:46:00;;;;;;;;;;;20.40;64.70;;;;;;5043130;28;19952;-65
2021/08/19 13:48:25;;;;;;;;;;;20.30;64.50;;;;;;5042316;28;19959;-66
2021/08/19 13:50:51;;;;;;;;;;;20.30;64.60;;;;;;5024516;28;20362;-67
2021/08/19 13:53:16;;;;;;;;;;;20.30;64.70;;;;;;5024670;28;19924;-67
2021/08/19 13:55:41;;;;;;;;;;;20.40;64.60;;;;;;5009095;28;19912;-66
2021/08/19 13:58:07;;;;;;;;;;;20.40;64.60;;;;;;5024483;28;19920;-66
2021/08/19 14:00:32;;;;;;;;;;;20.30;64.60;;;;;;5024451;28;20377;-67
2021/08/19 14:02:58;;;;;;;;;;;20.40;64.80;;;;;;5025309;28;20025;-67
2021/08/19 14:05:23;;;;;;;;;;;20.30;64.60;;;;;;5024033;28;20004;-66
2021/08/19 14:07:49;;;;;;;;;;;20.30;64.60;;;;;;5024447;28;19917;-66
2021/08/19 14:10:14;;;;;;;;;;;20.40;64.60;;;;;;5042884;28;19920;-66
2021/08/19 14:12:40;;;;;;;;;;;20.40;64.60;;;;;;5024275;28;20070;-66